PTD36 EGSG-EGKA
Flight info
| Callsign | PTD36 |
|---|---|
| Flight time | 0h 42m |
| Altitude | 2200 |
| Route | EGSG QE2 BRIDGE TUNBRIDGE BRIGHTON MARINA EGKA |
| Aircraft | C172/L-VGD/C |
Departure
| Time | 2026-04-18 09:33 |
|---|---|
| Airport | Stapleford Aerodrome (EGSG) |
Arrival
| Time | 2026-04-18 10:15 |
|---|---|
| Airport | Brighton City Airport (EGKA) |
| Time | Latitude | Longitude | Altitude | Speed | Heading |
|---|---|---|---|---|---|
| 2026-04-18 09:14 | 51.65628 | 0.15653 | 140 ft | 0 kts | 191° |
| 2026-04-18 09:24 | 51.65627 | 0.15653 | 139 ft | 2 kts | 196° |
| 2026-04-18 09:25 | 51.65625 | 0.15641 | 139 ft | 0 kts | 303° |
| 2026-04-18 09:25 | 51.65630 | 0.15635 | 140 ft | 2 kts | 342° |
| 2026-04-18 09:25 | 51.65637 | 0.15641 | 139 ft | 0 kts | 81° |
| 2026-04-18 09:25 | 51.65631 | 0.15715 | 136 ft | 8 kts | 88° |
| 2026-04-18 09:26 | 51.65625 | 0.15795 | 131 ft | 13 kts | 103° |
| 2026-04-18 09:26 | 51.65625 | 0.15894 | 120 ft | 0 kts | 78° |
| 2026-04-18 09:31 | 51.65630 | 0.15937 | 118 ft | 9 kts | 85° |
| 2026-04-18 09:31 | 51.65632 | 0.15966 | 119 ft | 0 kts | 85° |
| 2026-04-18 09:32 | 51.65632 | 0.15975 | 119 ft | 5 kts | 79° |
| 2026-04-18 09:32 | 51.65599 | 0.16007 | 123 ft | 12 kts | 232° |
| 2026-04-18 09:32 | 51.65528 | 0.15922 | 135 ft | 6 kts | 211° |
| 2026-04-18 09:32 | 51.65410 | 0.15790 | 145 ft | 42 kts | 216° |
| 2026-04-18 09:33 | 51.65083 | 0.15429 | 230 ft | 63 kts | 217° |
| 2026-04-18 09:33 | 51.64717 | 0.15165 | 485 ft | 56 kts | 207° |
| 2026-04-18 09:33 | 51.64348 | 0.14967 | 663 ft | 55 kts | 206° |
| 2026-04-18 09:33 | 51.63979 | 0.14863 | 869 ft | 56 kts | 191° |
| 2026-04-18 09:34 | 51.63579 | 0.14888 | 1059 ft | 66 kts | 185° |
| 2026-04-18 09:34 | 51.63092 | 0.15072 | 1245 ft | 77 kts | 151° |
| 2026-04-18 09:34 | 51.62591 | 0.15580 | 1460 ft | 91 kts | 151° |
| 2026-04-18 09:34 | 51.62064 | 0.16212 | 1729 ft | 98 kts | 144° |
| 2026-04-18 09:35 | 51.61528 | 0.16891 | 2041 ft | 97 kts | 142° |
| 2026-04-18 09:35 | 51.61006 | 0.17655 | 2136 ft | 103 kts | 139° |
| 2026-04-18 09:35 | 51.60492 | 0.18410 | 2321 ft | 101 kts | 142° |
| 2026-04-18 09:35 | 51.59934 | 0.19171 | 2408 ft | 107 kts | 139° |
| 2026-04-18 09:36 | 51.59478 | 0.20033 | 2641 ft | 102 kts | 140° |
| 2026-04-18 09:36 | 51.58920 | 0.20762 | 2612 ft | 103 kts | 144° |
| 2026-04-18 09:36 | 51.58300 | 0.21413 | 2646 ft | 104 kts | 151° |
| 2026-04-18 09:36 | 51.57760 | 0.22160 | 2739 ft | 105 kts | 134° |
| 2026-04-18 09:37 | 51.57163 | 0.22846 | 2711 ft | 106 kts | 159° |
| 2026-04-18 09:37 | 51.56480 | 0.23312 | 2675 ft | 108 kts | 165° |
| 2026-04-18 09:37 | 51.55826 | 0.23748 | 2781 ft | 101 kts | 159° |
| 2026-04-18 09:37 | 51.55150 | 0.24274 | 2703 ft | 110 kts | 159° |
| 2026-04-18 09:38 | 51.54444 | 0.24818 | 2692 ft | 107 kts | 161° |
| 2026-04-18 09:38 | 51.53783 | 0.25323 | 2720 ft | 108 kts | 158° |
| 2026-04-18 09:38 | 51.53092 | 0.25879 | 2734 ft | 118 kts | 159° |
| 2026-04-18 09:38 | 51.52322 | 0.26433 | 2695 ft | 123 kts | 162° |
| 2026-04-18 09:39 | 51.51563 | 0.26936 | 2742 ft | 115 kts | 163° |
| 2026-04-18 09:39 | 51.50930 | 0.27389 | 2970 ft | 97 kts | 156° |
| 2026-04-18 09:39 | 51.50259 | 0.28074 | 2778 ft | 125 kts | 153° |
| 2026-04-18 09:39 | 51.49509 | 0.28698 | 2736 ft | 121 kts | 160° |
| 2026-04-18 09:40 | 51.49015 | 0.29079 | 2768 ft | 116 kts | 160° |
| 2026-04-18 09:40 | 51.48273 | 0.29592 | 2774 ft | 119 kts | 167° |
| 2026-04-18 09:40 | 51.47218 | 0.29980 | 2795 ft | 116 kts | 180° |
| 2026-04-18 09:40 | 51.46675 | 0.30053 | 2764 ft | 114 kts | 182° |
| 2026-04-18 09:41 | 51.45916 | 0.30130 | 2771 ft | 112 kts | 183° |
| 2026-04-18 09:41 | 51.45128 | 0.30186 | 2717 ft | 115 kts | 186° |
| 2026-04-18 09:41 | 51.44354 | 0.30162 | 2877 ft | 107 kts | 190° |
| 2026-04-18 09:41 | 51.43599 | 0.30024 | 2888 ft | 112 kts | 199° |
| 2026-04-18 09:42 | 51.42933 | 0.29527 | 2940 ft | 102 kts | 221° |
| 2026-04-18 09:42 | 51.42372 | 0.28842 | 2890 ft | 101 kts | 225° |
| 2026-04-18 09:42 | 51.41848 | 0.28070 | 2856 ft | 104 kts | 232° |
| 2026-04-18 09:42 | 51.41447 | 0.27159 | 2961 ft | 96 kts | 240° |
| 2026-04-18 09:43 | 51.40800 | 0.26575 | 2867 ft | 116 kts | 190° |
| 2026-04-18 09:43 | 51.40033 | 0.26606 | 2963 ft | 108 kts | 184° |
| 2026-04-18 09:43 | 51.39267 | 0.26759 | 2920 ft | 112 kts | 178° |
| 2026-04-18 09:43 | 51.38482 | 0.26989 | 2887 ft | 115 kts | 175° |
| 2026-04-18 09:44 | 51.37704 | 0.27095 | 2848 ft | 112 kts | 186° |
| 2026-04-18 09:44 | 51.36903 | 0.27259 | 2790 ft | 117 kts | 170° |
| 2026-04-18 09:44 | 51.36117 | 0.27660 | 2660 ft | 119 kts | 169° |
| 2026-04-18 09:44 | 51.35374 | 0.28049 | 2592 ft | 116 kts | 166° |
| 2026-04-18 09:45 | 51.34750 | 0.28345 | 2530 ft | 113 kts | 172° |
| 2026-04-18 09:45 | 51.33950 | 0.28389 | 2269 ft | 119 kts | 196° |
| 2026-04-18 09:45 | 51.33166 | 0.28218 | 2300 ft | 108 kts | 194° |
| 2026-04-18 09:45 | 51.32440 | 0.28118 | 2239 ft | 109 kts | 186° |
| 2026-04-18 09:46 | 51.31696 | 0.28123 | 2363 ft | 103 kts | 187° |
| 2026-04-18 09:46 | 51.30938 | 0.28191 | 2258 ft | 111 kts | 178° |
| 2026-04-18 09:46 | 51.30194 | 0.28537 | 2110 ft | 111 kts | 165° |
| 2026-04-18 09:46 | 51.29476 | 0.28938 | 2075 ft | 112 kts | 165° |
| 2026-04-18 09:47 | 51.28732 | 0.29398 | 2056 ft | 114 kts | 171° |
| 2026-04-18 09:47 | 51.28000 | 0.29588 | 2118 ft | 109 kts | 182° |
| 2026-04-18 09:47 | 51.27269 | 0.29763 | 2163 ft | 103 kts | 174° |
| 2026-04-18 09:47 | 51.26561 | 0.30049 | 2015 ft | 109 kts | 171° |
| 2026-04-18 09:48 | 51.25829 | 0.30391 | 2022 ft | 110 kts | 168° |
| 2026-04-18 09:48 | 51.25082 | 0.30848 | 1871 ft | 117 kts | 166° |
| 2026-04-18 09:48 | 51.24306 | 0.31314 | 1787 ft | 118 kts | 165° |
| 2026-04-18 09:48 | 51.23553 | 0.31520 | 1710 ft | 116 kts | 185° |
| 2026-04-18 09:49 | 51.22757 | 0.31748 | 1891 ft | 110 kts | 166° |
| 2026-04-18 09:49 | 51.22020 | 0.32200 | 1878 ft | 116 kts | 161° |
| 2026-04-18 09:49 | 51.21288 | 0.32582 | 1981 ft | 111 kts | 169° |
| 2026-04-18 09:49 | 51.20548 | 0.32909 | 1867 ft | 113 kts | 168° |
| 2026-04-18 09:50 | 51.19800 | 0.33271 | 1917 ft | 108 kts | 172° |
| 2026-04-18 09:50 | 51.19086 | 0.33484 | 2004 ft | 103 kts | 174° |
| 2026-04-18 09:50 | 51.18378 | 0.33636 | 2054 ft | 99 kts | 189° |
| 2026-04-18 09:50 | 51.17677 | 0.33425 | 1972 ft | 106 kts | 200° |
| 2026-04-18 09:51 | 51.16941 | 0.33117 | 1718 ft | 117 kts | 198° |
| 2026-04-18 09:51 | 51.16245 | 0.32650 | 1761 ft | 102 kts | 218° |
| 2026-04-18 09:51 | 51.15653 | 0.32061 | 1654 ft | 107 kts | 215° |
| 2026-04-18 09:51 | 51.15033 | 0.31463 | 1576 ft | 104 kts | 218° |
| 2026-04-18 09:52 | 51.14448 | 0.30845 | 1553 ft | 98 kts | 219° |
| 2026-04-18 09:52 | 51.13916 | 0.30256 | 1564 ft | 91 kts | 223° |
| 2026-04-18 09:52 | 51.13384 | 0.29667 | 1681 ft | 94 kts | 217° |
| 2026-04-18 09:52 | 51.12786 | 0.29108 | 1843 ft | 99 kts | 211° |
| 2026-04-18 09:53 | 51.12138 | 0.28793 | 2038 ft | 99 kts | 199° |
| 2026-04-18 09:53 | 51.11402 | 0.28566 | 2009 ft | 113 kts | 199° |
| 2026-04-18 09:53 | 51.10665 | 0.28195 | 2010 ft | 114 kts | 212° |
| 2026-04-18 09:53 | 51.10019 | 0.27500 | 1934 ft | 111 kts | 223° |
| 2026-04-18 09:54 | 51.09425 | 0.26733 | 1947 ft | 108 kts | 224° |
| 2026-04-18 09:54 | 51.08818 | 0.26017 | 1914 ft | 108 kts | 220° |
| 2026-04-18 09:54 | 51.08250 | 0.25411 | 2127 ft | 101 kts | 214° |
| 2026-04-18 09:54 | 51.07612 | 0.25022 | 2210 ft | 100 kts | 201° |
| 2026-04-18 09:55 | 51.06937 | 0.24587 | 2119 ft | 109 kts | 214° |
| 2026-04-18 09:55 | 51.06328 | 0.23974 | 2196 ft | 103 kts | 216° |
| 2026-04-18 09:55 | 51.05673 | 0.23463 | 2188 ft | 103 kts | 214° |
| 2026-04-18 09:55 | 51.05023 | 0.22913 | 2100 ft | 104 kts | 213° |
| 2026-04-18 09:56 | 51.04397 | 0.22398 | 2080 ft | 100 kts | 215° |
| 2026-04-18 09:56 | 51.03796 | 0.21863 | 2071 ft | 101 kts | 215° |
| 2026-04-18 09:56 | 51.03188 | 0.21330 | 2059 ft | 100 kts | 214° |
| 2026-04-18 09:56 | 51.02542 | 0.20872 | 2026 ft | 100 kts | 210° |
| 2026-04-18 09:57 | 51.01886 | 0.20505 | 1935 ft | 103 kts | 200° |
| 2026-04-18 09:57 | 51.01205 | 0.20138 | 1885 ft | 101 kts | 202° |
| 2026-04-18 09:57 | 51.00560 | 0.19778 | 2045 ft | 92 kts | 211° |
| 2026-04-18 09:57 | 51.00000 | 0.19284 | 2018 ft | 96 kts | 217° |
| 2026-04-18 09:58 | 50.99439 | 0.18729 | 2018 ft | 97 kts | 215° |
| 2026-04-18 09:58 | 50.98820 | 0.18224 | 2057 ft | 97 kts | 216° |
| 2026-04-18 09:58 | 50.98228 | 0.17746 | 2144 ft | 101 kts | 211° |
| 2026-04-18 09:58 | 50.97613 | 0.17231 | 2338 ft | 96 kts | 210° |
| 2026-04-18 09:59 | 50.96993 | 0.16804 | 2337 ft | 99 kts | 208° |
| 2026-04-18 09:59 | 50.96308 | 0.16569 | 2565 ft | 104 kts | 185° |
| 2026-04-18 09:59 | 50.95548 | 0.16644 | 2603 ft | 112 kts | 177° |
| 2026-04-18 10:00 | 50.94102 | 0.16251 | 2545 ft | 97 kts | 222° |
| 2026-04-18 10:00 | 50.93520 | 0.15654 | 2487 ft | 101 kts | 218° |
| 2026-04-18 10:00 | 50.92907 | 0.15079 | 2485 ft | 102 kts | 215° |
| 2026-04-18 10:00 | 50.92283 | 0.14564 | 2494 ft | 106 kts | 213° |
| 2026-04-18 10:01 | 50.91687 | 0.13914 | 2722 ft | 96 kts | 230° |
| 2026-04-18 10:01 | 50.91150 | 0.13182 | 2690 ft | 102 kts | 222° |
| 2026-04-18 10:01 | 50.90521 | 0.12552 | 2502 ft | 110 kts | 216° |
| 2026-04-18 10:01 | 50.89839 | 0.12026 | 2376 ft | 107 kts | 211° |
| 2026-04-18 10:02 | 50.89198 | 0.11507 | 2304 ft | 105 kts | 213° |
| 2026-04-18 10:02 | 50.88532 | 0.11025 | 2268 ft | 103 kts | 210° |
| 2026-04-18 10:02 | 50.87864 | 0.10566 | 2231 ft | 109 kts | 209° |
| 2026-04-18 10:02 | 50.87128 | 0.10217 | 2147 ft | 108 kts | 197° |
| 2026-04-18 10:03 | 50.86391 | 0.09979 | 2055 ft | 109 kts | 197° |
| 2026-04-18 10:03 | 50.85665 | 0.09753 | 2186 ft | 100 kts | 200° |
| 2026-04-18 10:03 | 50.85031 | 0.09392 | 2171 ft | 100 kts | 210° |
| 2026-04-18 10:03 | 50.84509 | 0.08807 | 2147 ft | 91 kts | 230° |
| 2026-04-18 10:04 | 50.84081 | 0.08058 | 2151 ft | 93 kts | 234° |
| 2026-04-18 10:04 | 50.83603 | 0.07326 | 2182 ft | 93 kts | 219° |
| 2026-04-18 10:04 | 50.83045 | 0.06747 | 2087 ft | 101 kts | 215° |
| 2026-04-18 10:04 | 50.82501 | 0.06083 | 2120 ft | 94 kts | 235° |
| 2026-04-18 10:05 | 50.82128 | 0.05263 | 2091 ft | 92 kts | 240° |
| 2026-04-18 10:05 | 50.81746 | 0.04411 | 1993 ft | 96 kts | 242° |
| 2026-04-18 10:05 | 50.81414 | 0.03523 | 1999 ft | 93 kts | 246° |
| 2026-04-18 10:05 | 50.81091 | 0.02614 | 1995 ft | 95 kts | 244° |
| 2026-04-18 10:06 | 50.80782 | 0.01704 | 2006 ft | 94 kts | 246° |
| 2026-04-18 10:06 | 50.80495 | 0.00922 | 1981 ft | 98 kts | 251° |
| 2026-04-18 10:06 | 50.80288 | -0.00086 | 2005 ft | 95 kts | 258° |
| 2026-04-18 10:06 | 50.80143 | -0.01112 | 2024 ft | 96 kts | 264° |
| 2026-04-18 10:07 | 50.80117 | -0.02123 | 2193 ft | 88 kts | 278° |
| 2026-04-18 10:07 | 50.80263 | -0.03097 | 2245 ft | 94 kts | 285° |
| 2026-04-18 10:07 | 50.80450 | -0.04078 | 2394 ft | 93 kts | 288° |
| 2026-04-18 10:07 | 50.80649 | -0.05077 | 2503 ft | 93 kts | 289° |
| 2026-04-18 10:08 | 50.80843 | -0.06032 | 2643 ft | 94 kts | 283° |
| 2026-04-18 10:08 | 50.80916 | -0.07069 | 2716 ft | 96 kts | 276° |
| 2026-04-18 10:08 | 50.80971 | -0.08087 | 2840 ft | 98 kts | 273° |
| 2026-04-18 10:08 | 50.80906 | -0.09258 | 2555 ft | 107 kts | 264° |
| 2026-04-18 10:09 | 50.80798 | -0.10377 | 2413 ft | 99 kts | 265° |
| 2026-04-18 10:09 | 50.80775 | -0.11459 | 2216 ft | 100 kts | 275° |
| 2026-04-18 10:09 | 50.80851 | -0.12498 | 2132 ft | 93 kts | 279° |
| 2026-04-18 10:09 | 50.80950 | -0.13536 | 1965 ft | 95 kts | 281° |
| 2026-04-18 10:10 | 50.81070 | -0.14544 | 1800 ft | 94 kts | 282° |
| 2026-04-18 10:10 | 50.81228 | -0.15538 | 1649 ft | 91 kts | 286° |
| 2026-04-18 10:10 | 50.81409 | -0.16498 | 1479 ft | 91 kts | 285° |
| 2026-04-18 10:10 | 50.81579 | -0.17423 | 1385 ft | 87 kts | 284° |
| 2026-04-18 10:11 | 50.81701 | -0.18375 | 1271 ft | 88 kts | 279° |
| 2026-04-18 10:11 | 50.81845 | -0.19291 | 1240 ft | 85 kts | 287° |
| 2026-04-18 10:11 | 50.82119 | -0.20121 | 1229 ft | 87 kts | 304° |
| 2026-04-18 10:11 | 50.82561 | -0.20792 | 1221 ft | 89 kts | 319° |
| 2026-04-18 10:12 | 50.83098 | -0.21274 | 1357 ft | 91 kts | 333° |
| 2026-04-18 10:12 | 50.83699 | -0.21577 | 1402 ft | 92 kts | 339° |
| 2026-04-18 10:12 | 50.84330 | -0.21854 | 1334 ft | 94 kts | 337° |
| 2026-04-18 10:12 | 50.84920 | -0.22204 | 1281 ft | 88 kts | 324° |
| 2026-04-18 10:13 | 50.85411 | -0.22806 | 1116 ft | 88 kts | 302° |
| 2026-04-18 10:13 | 50.85656 | -0.23644 | 1024 ft | 78 kts | 287° |
| 2026-04-18 10:13 | 50.85748 | -0.24478 | 882 ft | 75 kts | 274° |
| 2026-04-18 10:13 | 50.85779 | -0.25250 | 861 ft | 68 kts | 272° |
| 2026-04-18 10:14 | 50.85766 | -0.26019 | 826 ft | 71 kts | 268° |
| 2026-04-18 10:14 | 50.85613 | -0.26729 | 821 ft | 71 kts | 247° |
| 2026-04-18 10:14 | 50.85393 | -0.27476 | 659 ft | 77 kts | 255° |
| 2026-04-18 10:14 | 50.85195 | -0.28286 | 398 ft | 82 kts | 252° |
| 2026-04-18 10:15 | 50.84793 | -0.28923 | 221 ft | 88 kts | 212° |
| 2026-04-18 10:15 | 50.84250 | -0.29282 | 81 ft | 80 kts | 208° |
| 2026-04-18 10:15 | 50.83767 | -0.29603 | 15 ft | 71 kts | 199° |
| 2026-04-18 10:15 | 50.83448 | -0.29798 | 11 ft | 21 kts | 199° |
| 2026-04-18 10:16 | 50.83318 | -0.29881 | 11 ft | 19 kts | 201° |
| 2026-04-18 10:16 | 50.83253 | -0.29902 | 11 ft | 7 kts | 150° |
| 2026-04-18 10:16 | 50.83259 | -0.29822 | 9 ft | 10 kts | 63° |
| 2026-04-18 10:16 | 50.83294 | -0.29707 | 8 ft | 13 kts | 65° |
| 2026-04-18 10:17 | 50.83338 | -0.29568 | 9 ft | 15 kts | 64° |
| 2026-04-18 10:17 | 50.83385 | -0.29416 | 9 ft | 14 kts | 63° |
| 2026-04-18 10:17 | 50.83422 | -0.29302 | 11 ft | 10 kts | 64° |
| 2026-04-18 10:17 | 50.83445 | -0.29191 | 12 ft | 12 kts | 75° |
| 2026-04-18 10:18 | 50.83474 | -0.29046 | 10 ft | 14 kts | 65° |
| 2026-04-18 10:18 | 50.83476 | -0.28968 | 9 ft | 2 kts | 133° |
| 2026-04-18 10:18 | 50.83462 | -0.28963 | 9 ft | 4 kts | 199° |
| 2026-04-18 10:18 | 50.83450 | -0.28984 | 9 ft | 0 kts | 252° |